sensor_id;sensor_type;location;lat;lon;timestamp;P1;durP1;ratioP1;P2;durP2;ratioP2
18407;SDS011;9330;52.210;21.174;2022-09-11T00:02:21;7.10;;;6.25;;
18407;SDS011;9330;52.210;21.174;2022-09-11T00:04:48;8.00;;;6.80;;
18407;SDS011;9330;52.210;21.174;2022-09-11T00:07:15;6.93;;;6.28;;
18407;SDS011;9330;52.210;21.174;2022-09-11T00:09:42;7.95;;;6.75;;
18407;SDS011;9330;52.210;21.174;2022-09-11T00:12:11;8.38;;;6.88;;
18407;SDS011;9330;52.210;21.174;2022-09-11T00:14:38;6.72;;;6.07;;
18407;SDS011;9330;52.210;21.174;2022-09-11T00:17:05;10.25;;;6.75;;
18407;SDS011;9330;52.210;21.174;2022-09-11T00:19:32;7.55;;;6.85;;
18407;SDS011;9330;52.210;21.174;2022-09-11T00:22:00;7.50;;;6.55;;
18407;SDS011;9330;52.210;21.174;2022-09-11T00:24:27;7.63;;;6.82;;
18407;SDS011;9330;52.210;21.174;2022-09-11T00:26:54;7.95;;;6.93;;
18407;SDS011;9330;52.210;21.174;2022-09-11T00:29:23;7.95;;;7.15;;
18407;SDS011;9330;52.210;21.174;2022-09-11T00:31:50;9.35;;;7.53;;
18407;SDS011;9330;52.210;21.174;2022-09-11T00:34:18;8.60;;;7.72;;
18407;SDS011;9330;52.210;21.174;2022-09-11T00:36:45;9.82;;;8.43;;
18407;SDS011;9330;52.210;21.174;2022-09-11T00:39:12;8.60;;;7.80;;
18407;SDS011;9330;52.210;21.174;2022-09-11T00:41:40;8.95;;;8.05;;
18407;SDS011;9330;52.210;21.174;2022-09-11T00:47:12;10.10;;;9.10;;
18407;SDS011;9330;52.210;21.174;2022-09-11T00:49:43;9.82;;;8.23;;
18407;SDS011;9330;52.210;21.174;2022-09-11T00:52:13;8.63;;;7.78;;
18407;SDS011;9330;52.210;21.174;2022-09-11T00:54:44;10.35;;;8.80;;
18407;SDS011;9330;52.210;21.174;2022-09-11T00:57:15;12.02;;;9.88;;
18407;SDS011;9330;52.210;21.174;2022-09-11T00:59:48;11.40;;;9.18;;
18407;SDS011;9330;52.210;21.174;2022-09-11T01:02:20;10.90;;;9.75;;
18407;SDS011;9330;52.210;21.174;2022-09-11T01:04:51;12.82;;;10.23;;
18407;SDS011;9330;52.210;21.174;2022-09-11T01:07:18;9.98;;;9.00;;
18407;SDS011;9330;52.210;21.174;2022-09-11T01:09:48;11.52;;;10.25;;
18407;SDS011;9330;52.210;21.174;2022-09-11T01:12:16;13.05;;;10.88;;
18407;SDS011;9330;52.210;21.174;2022-09-11T01:14:50;11.77;;;10.35;;
18407;SDS011;9330;52.210;21.174;2022-09-11T01:17:23;12.77;;;11.43;;
18407;SDS011;9330;52.210;21.174;2022-09-11T01:22:56;12.00;;;10.73;;
18407;SDS011;9330;52.210;21.174;2022-09-11T01:25:45;12.52;;;11.23;;
18407;SDS011;9330;52.210;21.174;2022-09-11T01:28:27;12.35;;;11.05;;
18407;SDS011;9330;52.210;21.174;2022-09-11T01:31:02;14.30;;;12.80;;
18407;SDS011;9330;52.210;21.174;2022-09-11T01:33:33;13.93;;;12.43;;
18407;SDS011;9330;52.210;21.174;2022-09-11T01:36:09;14.52;;;12.98;;
18407;SDS011;9330;52.210;21.174;2022-09-11T01:38:43;14.63;;;13.07;;
18407;SDS011;9330;52.210;21.174;2022-09-11T01:41:14;13.32;;;11.93;;
18407;SDS011;9330;52.210;21.174;2022-09-11T01:43:47;15.77;;;13.82;;
18407;SDS011;9330;52.210;21.174;2022-09-11T01:46:20;14.07;;;12.68;;
18407;SDS011;9330;52.210;21.174;2022-09-11T01:48:51;15.43;;;13.82;;
18407;SDS011;9330;52.210;21.174;2022-09-11T01:51:25;16.27;;;14.63;;
18407;SDS011;9330;52.210;21.174;2022-09-11T01:53:56;14.32;;;12.82;;
18407;SDS011;9330;52.210;21.174;2022-09-11T01:56:28;15.43;;;13.80;;
18407;SDS011;9330;52.210;21.174;2022-09-11T01:59:00;14.40;;;12.95;;
18407;SDS011;9330;52.210;21.174;2022-09-11T02:01:32;14.60;;;13.10;;
18407;SDS011;9330;52.210;21.174;2022-09-11T02:04:02;13.05;;;11.75;;
18407;SDS011;9330;52.210;21.174;2022-09-11T02:06:34;14.20;;;12.80;;
18407;SDS011;9330;52.210;21.174;2022-09-11T02:09:10;12.23;;;11.00;;
18407;SDS011;9330;52.210;21.174;2022-09-11T02:11:42;12.32;;;11.13;;
18407;SDS011;9330;52.210;21.174;2022-09-11T02:14:16;12.55;;;11.25;;
18407;SDS011;9330;52.210;21.174;2022-09-11T02:16:47;11.70;;;10.57;;
18407;SDS011;9330;52.210;21.174;2022-09-11T02:19:16;11.43;;;10.32;;
18407;SDS011;9330;52.210;21.174;2022-09-11T02:21:45;12.45;;;11.25;;
18407;SDS011;9330;52.210;21.174;2022-09-11T02:24:13;11.73;;;10.23;;
18407;SDS011;9330;52.210;21.174;2022-09-11T02:26:43;11.38;;;10.15;;
18407;SDS011;9330;52.210;21.174;2022-09-11T02:29:13;10.93;;;9.93;;
18407;SDS011;9330;52.210;21.174;2022-09-11T02:31:41;11.60;;;10.38;;
18407;SDS011;9330;52.210;21.174;2022-09-11T02:34:09;11.40;;;9.85;;
18407;SDS011;9330;52.210;21.174;2022-09-11T02:36:41;10.70;;;9.60;;
18407;SDS011;9330;52.210;21.174;2022-09-11T02:39:25;10.70;;;9.60;;
18407;SDS011;9330;52.210;21.174;2022-09-11T02:42:22;10.23;;;9.32;;
18407;SDS011;9330;52.210;21.174;2022-09-11T02:45:03;9.85;;;8.85;;
18407;SDS011;9330;52.210;21.174;2022-09-11T02:47:43;10.20;;;9.13;;
18407;SDS011;9330;52.210;21.174;2022-09-11T02:50:20;10.40;;;9.40;;
18407;SDS011;9330;52.210;21.174;2022-09-11T02:52:55;9.68;;;8.57;;
18407;SDS011;9330;52.210;21.174;2022-09-11T02:55:29;10.57;;;9.57;;
18407;SDS011;9330;52.210;21.174;2022-09-11T02:58:03;9.60;;;8.68;;
18407;SDS011;9330;52.210;21.174;2022-09-11T03:00:36;9.77;;;8.77;;
18407;SDS011;9330;52.210;21.174;2022-09-11T03:03:03;10.30;;;9.20;;
18407;SDS011;9330;52.210;21.174;2022-09-11T03:05:31;8.95;;;8.05;;
18407;SDS011;9330;52.210;21.174;2022-09-11T03:08:01;9.88;;;8.82;;
18407;SDS011;9330;52.210;21.174;2022-09-11T03:10:29;9.25;;;8.35;;
18407;SDS011;9330;52.210;21.174;2022-09-11T03:12:56;8.63;;;7.65;;
18407;SDS011;9330;52.210;21.174;2022-09-11T03:15:23;8.93;;;8.02;;
18407;SDS011;9330;52.210;21.174;2022-09-11T03:17:52;8.82;;;7.93;;
18407;SDS011;9330;52.210;21.174;2022-09-11T03:20:19;9.60;;;8.20;;
18407;SDS011;9330;52.210;21.174;2022-09-11T03:22:47;9.20;;;8.30;;
18407;SDS011;9330;52.210;21.174;2022-09-11T03:25:14;8.65;;;7.38;;
18407;SDS011;9330;52.210;21.174;2022-09-11T03:27:41;8.73;;;7.93;;
18407;SDS011;9330;52.210;21.174;2022-09-11T03:30:09;9.05;;;8.15;;
18407;SDS011;9330;52.210;21.174;2022-09-11T03:32:36;10.07;;;8.25;;
18407;SDS011;9330;52.210;21.174;2022-09-11T03:35:05;9.07;;;8.00;;
18407;SDS011;9330;52.210;21.174;2022-09-11T03:37:33;8.85;;;7.95;;
18407;SDS011;9330;52.210;21.174;2022-09-11T03:40:00;8.52;;;7.65;;
18407;SDS011;9330;52.210;21.174;2022-09-11T03:42:27;8.15;;;7.35;;
18407;SDS011;9330;52.210;21.174;2022-09-11T03:44:55;8.13;;;7.28;;
18407;SDS011;9330;52.210;21.174;2022-09-11T03:47:22;7.68;;;6.90;;
18407;SDS011;9330;52.210;21.174;2022-09-11T03:49:49;7.32;;;6.63;;
18407;SDS011;9330;52.210;21.174;2022-09-11T03:52:18;8.05;;;7.20;;
18407;SDS011;9330;52.210;21.174;2022-09-11T03:54:47;8.35;;;6.38;;
18407;SDS011;9330;52.210;21.174;2022-09-11T03:57:14;7.47;;;6.75;;
18407;SDS011;9330;52.210;21.174;2022-09-11T03:59:41;7.25;;;6.55;;
18407;SDS011;9330;52.210;21.174;2022-09-11T04:02:08;7.13;;;6.43;;
18407;SDS011;9330;52.210;21.174;2022-09-11T04:04:35;7.75;;;6.95;;
18407;SDS011;9330;52.210;21.174;2022-09-11T04:07:02;6.38;;;5.78;;
18407;SDS011;9330;52.210;21.174;2022-09-11T04:09:31;6.38;;;5.78;;
18407;SDS011;9330;52.210;21.174;2022-09-11T04:11:58;7.07;;;6.38;;
18407;SDS011;9330;52.210;21.174;2022-09-11T04:14:27;6.55;;;5.90;;
18407;SDS011;9330;52.210;21.174;2022-09-11T04:16:54;7.55;;;6.85;;
18407;SDS011;9330;52.210;21.174;2022-09-11T04:19:21;6.82;;;6.13;;
18407;SDS011;9330;52.210;21.174;2022-09-11T04:21:48;7.45;;;6.40;;
18407;SDS011;9330;52.210;21.174;2022-09-11T04:24:15;8.38;;;5.90;;
18407;SDS011;9330;52.210;21.174;2022-09-11T04:26:44;9.30;;;6.65;;
18407;SDS011;9330;52.210;21.174;2022-09-11T04:29:12;6.88;;;6.18;;
18407;SDS011;9330;52.210;21.174;2022-09-11T04:31:41;6.70;;;6.00;;
18407;SDS011;9330;52.210;21.174;2022-09-11T04:34:09;6.25;;;5.65;;
18407;SDS011;9330;52.210;21.174;2022-09-11T04:36:36;6.22;;;5.60;;
18407;SDS011;9330;52.210;21.174;2022-09-11T04:39:03;6.25;;;5.53;;
18407;SDS011;9330;52.210;21.174;2022-09-11T04:41:31;6.88;;;6.18;;
18407;SDS011;9330;52.210;21.174;2022-09-11T04:43:59;6.40;;;5.80;;
18407;SDS011;9330;52.210;21.174;2022-09-11T04:46:27;6.85;;;6.25;;
18407;SDS011;9330;52.210;21.174;2022-09-11T04:48:55;7.00;;;6.25;;
18407;SDS011;9330;52.210;21.174;2022-09-11T04:51:24;6.22;;;5.63;;
18407;SDS011;9330;52.210;21.174;2022-09-11T04:53:54;6.10;;;5.13;;
18407;SDS011;9330;52.210;21.174;2022-09-11T04:56:22;6.43;;;5.82;;
18407;SDS011;9330;52.210;21.174;2022-09-11T04:58:54;5.65;;;5.13;;
18407;SDS011;9330;52.210;21.174;2022-09-11T05:01:25;6.40;;;5.80;;
18407;SDS011;9330;52.210;21.174;2022-09-11T05:03:53;6.93;;;6.22;;
18407;SDS011;9330;52.210;21.174;2022-09-11T05:06:20;6.55;;;5.93;;
18407;SDS011;9330;52.210;21.174;2022-09-11T05:08:48;9.13;;;6.47;;
18407;SDS011;9330;52.210;21.174;2022-09-11T05:11:16;6.70;;;5.95;;
18407;SDS011;9330;52.210;21.174;2022-09-11T05:13:45;6.68;;;5.93;;
18407;SDS011;9330;52.210;21.174;2022-09-11T05:16:13;5.72;;;5.15;;
18407;SDS011;9330;52.210;21.174;2022-09-11T05:18:48;6.28;;;5.35;;
18407;SDS011;9330;52.210;21.174;2022-09-11T05:21:16;6.47;;;5.70;;
18407;SDS011;9330;52.210;21.174;2022-09-11T05:23:47;6.53;;;5.82;;
18407;SDS011;9330;52.210;21.174;2022-09-11T05:26:16;6.15;;;5.57;;
18407;SDS011;9330;52.210;21.174;2022-09-11T05:28:44;6.22;;;5.63;;
18407;SDS011;9330;52.210;21.174;2022-09-11T05:31:12;5.35;;;4.78;;
18407;SDS011;9330;52.210;21.174;2022-09-11T05:33:41;6.13;;;5.47;;
18407;SDS011;9330;52.210;21.174;2022-09-11T05:36:10;5.68;;;4.95;;
18407;SDS011;9330;52.210;21.174;2022-09-11T05:38:38;5.97;;;5.35;;
18407;SDS011;9330;52.210;21.174;2022-09-11T05:41:06;7.50;;;5.40;;
18407;SDS011;9330;52.210;21.174;2022-09-11T05:43:35;5.90;;;5.30;;
18407;SDS011;9330;52.210;21.174;2022-09-11T05:46:03;6.43;;;5.70;;
18407;SDS011;9330;52.210;21.174;2022-09-11T05:48:31;5.10;;;4.65;;
18407;SDS011;9330;52.210;21.174;2022-09-11T05:51:03;5.93;;;4.95;;
18407;SDS011;9330;52.210;21.174;2022-09-11T05:53:32;6.75;;;5.93;;
18407;SDS011;9330;52.210;21.174;2022-09-11T05:56:04;5.70;;;5.10;;
18407;SDS011;9330;52.210;21.174;2022-09-11T05:58:32;5.20;;;4.50;;
18407;SDS011;9330;52.210;21.174;2022-09-11T06:01:03;5.68;;;5.00;;
18407;SDS011;9330;52.210;21.174;2022-09-11T06:03:32;6.45;;;5.50;;
18407;SDS011;9330;52.210;21.174;2022-09-11T06:05:59;7.72;;;5.43;;
18407;SDS011;9330;52.210;21.174;2022-09-11T06:08:29;5.95;;;5.35;;
18407;SDS011;9330;52.210;21.174;2022-09-11T06:10:58;6.65;;;4.85;;
18407;SDS011;9330;52.210;21.174;2022-09-11T06:13:28;7.88;;;5.97;;
18407;SDS011;9330;52.210;21.174;2022-09-11T06:15:55;6.55;;;5.63;;
18407;SDS011;9330;52.210;21.174;2022-09-11T06:18:23;5.82;;;5.10;;
18407;SDS011;9330;52.210;21.174;2022-09-11T06:20:56;6.55;;;5.43;;
18407;SDS011;9330;52.210;21.174;2022-09-11T06:23:26;9.30;;;5.40;;
18407;SDS011;9330;52.210;21.174;2022-09-11T06:25:56;6.78;;;5.70;;
18407;SDS011;9330;52.210;21.174;2022-09-11T06:28:27;6.70;;;5.95;;
18407;SDS011;9330;52.210;21.174;2022-09-11T06:30:54;9.85;;;5.63;;
18407;SDS011;9330;52.210;21.174;2022-09-11T06:33:22;6.78;;;5.85;;
18407;SDS011;9330;52.210;21.174;2022-09-11T06:35:55;6.32;;;5.63;;
18407;SDS011;9330;52.210;21.174;2022-09-11T06:38:23;5.38;;;4.82;;
18407;SDS011;9330;52.210;21.174;2022-09-11T06:40:52;7.05;;;5.60;;
18407;SDS011;9330;52.210;21.174;2022-09-11T06:43:20;6.30;;;5.47;;
18407;SDS011;9330;52.210;21.174;2022-09-11T06:45:48;6.50;;;5.43;;
18407;SDS011;9330;52.210;21.174;2022-09-11T06:48:15;7.25;;;6.18;;
18407;SDS011;9330;52.210;21.174;2022-09-11T06:50:43;6.93;;;5.93;;
18407;SDS011;9330;52.210;21.174;2022-09-11T06:53:11;7.65;;;6.53;;
18407;SDS011;9330;52.210;21.174;2022-09-11T06:55:40;7.72;;;6.60;;
18407;SDS011;9330;52.210;21.174;2022-09-11T06:58:07;9.73;;;6.78;;
18407;SDS011;9330;52.210;21.174;2022-09-11T07:00:35;9.75;;;6.90;;
18407;SDS011;9330;52.210;21.174;2022-09-11T07:03:02;7.63;;;6.53;;
18407;SDS011;9330;52.210;21.174;2022-09-11T07:05:29;7.68;;;6.55;;
18407;SDS011;9330;52.210;21.174;2022-09-11T07:07:57;8.43;;;7.20;;
18407;SDS011;9330;52.210;21.174;2022-09-11T07:10:24;10.18;;;6.93;;
18407;SDS011;9330;52.210;21.174;2022-09-11T07:12:53;9.40;;;6.95;;
18407;SDS011;9330;52.210;21.174;2022-09-11T07:15:22;7.80;;;6.95;;
18407;SDS011;9330;52.210;21.174;2022-09-11T07:17:49;10.45;;;7.43;;
18407;SDS011;9330;52.210;21.174;2022-09-11T07:20:16;7.70;;;6.50;;
18407;SDS011;9330;52.210;21.174;2022-09-11T07:22:43;10.95;;;6.93;;
18407;SDS011;9330;52.210;21.174;2022-09-11T07:25:11;8.63;;;7.10;;
18407;SDS011;9330;52.210;21.174;2022-09-11T07:27:39;8.40;;;7.35;;
18407;SDS011;9330;52.210;21.174;2022-09-11T07:30:08;9.20;;;7.05;;
18407;SDS011;9330;52.210;21.174;2022-09-11T07:32:36;9.43;;;7.30;;
18407;SDS011;9330;52.210;21.174;2022-09-11T07:35:04;8.25;;;6.90;;
18407;SDS011;9330;52.210;21.174;2022-09-11T07:37:31;7.78;;;6.63;;
18407;SDS011;9330;52.210;21.174;2022-09-11T07:39:58;8.23;;;6.93;;
18407;SDS011;9330;52.210;21.174;2022-09-11T07:42:25;9.77;;;7.50;;
18407;SDS011;9330;52.210;21.174;2022-09-11T07:44:53;7.93;;;7.13;;
18407;SDS011;9330;52.210;21.174;2022-09-11T07:47:21;10.98;;;7.55;;
18407;SDS011;9330;52.210;21.174;2022-09-11T07:49:49;8.18;;;6.95;;
18407;SDS011;9330;52.210;21.174;2022-09-11T07:52:16;11.13;;;7.63;;
18407;SDS011;9330;52.210;21.174;2022-09-11T07:54:44;8.05;;;7.25;;
18407;SDS011;9330;52.210;21.174;2022-09-11T07:57:11;10.07;;;7.32;;
18407;SDS011;9330;52.210;21.174;2022-09-11T07:59:38;8.48;;;7.45;;
18407;SDS011;9330;52.210;21.174;2022-09-11T08:02:05;10.93;;;7.47;;
18407;SDS011;9330;52.210;21.174;2022-09-11T08:04:37;9.25;;;7.88;;
18407;SDS011;9330;52.210;21.174;2022-09-11T08:07:04;8.25;;;7.00;;
18407;SDS011;9330;52.210;21.174;2022-09-11T08:09:31;7.95;;;6.78;;
18407;SDS011;9330;52.210;21.174;2022-09-11T08:11:58;10.77;;;8.00;;
18407;SDS011;9330;52.210;21.174;2022-09-11T08:14:26;10.85;;;7.90;;
18407;SDS011;9330;52.210;21.174;2022-09-11T08:16:53;8.52;;;7.63;;
18407;SDS011;9330;52.210;21.174;2022-09-11T08:19:21;11.45;;;7.82;;
18407;SDS011;9330;52.210;21.174;2022-09-11T08:21:50;12.55;;;8.25;;
18407;SDS011;9330;52.210;21.174;2022-09-11T08:24:18;10.75;;;8.18;;
18407;SDS011;9330;52.210;21.174;2022-09-11T08:26:45;9.65;;;7.93;;
18407;SDS011;9330;52.210;21.174;2022-09-11T08:29:12;11.00;;;7.78;;
18407;SDS011;9330;52.210;21.174;2022-09-11T08:31:40;10.00;;;7.63;;
18407;SDS011;9330;52.210;21.174;2022-09-11T08:34:08;9.38;;;7.40;;
18407;SDS011;9330;52.210;21.174;2022-09-11T08:36:35;10.88;;;7.95;;
18407;SDS011;9330;52.210;21.174;2022-09-11T08:39:04;11.98;;;8.05;;
18407;SDS011;9330;52.210;21.174;2022-09-11T08:41:35;9.30;;;7.57;;
18407;SDS011;9330;52.210;21.174;2022-09-11T08:44:11;10.32;;;8.23;;
18407;SDS011;9330;52.210;21.174;2022-09-11T08:46:42;9.23;;;7.50;;
18407;SDS011;9330;52.210;21.174;2022-09-11T08:49:14;12.10;;;8.35;;
18407;SDS011;9330;52.210;21.174;2022-09-11T08:51:47;12.27;;;7.88;;
18407;SDS011;9330;52.210;21.174;2022-09-11T08:54:21;10.90;;;7.72;;
18407;SDS011;9330;52.210;21.174;2022-09-11T08:56:51;8.93;;;7.28;;
18407;SDS011;9330;52.210;21.174;2022-09-11T08:59:32;11.02;;;7.80;;
18407;SDS011;9330;52.210;21.174;2022-09-11T09:02:12;10.90;;;8.27;;
18407;SDS011;9330;52.210;21.174;2022-09-11T09:04:58;10.02;;;7.68;;
18407;SDS011;9330;52.210;21.174;2022-09-11T09:07:36;10.85;;;7.85;;
18407;SDS011;9330;52.210;21.174;2022-09-11T09:10:20;10.18;;;8.20;;
18407;SDS011;9330;52.210;21.174;2022-09-11T09:12:58;10.40;;;7.28;;
18407;SDS011;9330;52.210;21.174;2022-09-11T09:15:33;9.05;;;7.03;;
18407;SDS011;9330;52.210;21.174;2022-09-11T09:18:08;10.80;;;7.45;;
18407;SDS011;9330;52.210;21.174;2022-09-11T09:20:39;9.98;;;7.68;;
18407;SDS011;9330;52.210;21.174;2022-09-11T09:23:12;9.10;;;6.88;;
18407;SDS011;9330;52.210;21.174;2022-09-11T09:25:45;9.70;;;6.50;;
18407;SDS011;9330;52.210;21.174;2022-09-11T09:28:17;9.13;;;6.70;;
18407;SDS011;9330;52.210;21.174;2022-09-11T09:30:49;10.73;;;6.90;;
18407;SDS011;9330;52.210;21.174;2022-09-11T09:33:28;8.43;;;5.93;;
18407;SDS011;9330;52.210;21.174;2022-09-11T09:35:58;10.00;;;6.30;;
18407;SDS011;9330;52.210;21.174;2022-09-11T09:38:38;8.38;;;6.22;;
18407;SDS011;9330;52.210;21.174;2022-09-11T09:41:25;8.00;;;5.32;;
18407;SDS011;9330;52.210;21.174;2022-09-11T09:44:05;7.18;;;5.22;;
18407;SDS011;9330;52.210;21.174;2022-09-11T09:46:41;7.18;;;4.80;;
18407;SDS011;9330;52.210;21.174;2022-09-11T09:49:10;6.55;;;4.20;;
18407;SDS011;9330;52.210;21.174;2022-09-11T09:51:41;5.68;;;5.07;;
18407;SDS011;9330;52.210;21.174;2022-09-11T09:54:09;4.95;;;3.85;;
18407;SDS011;9330;52.210;21.174;2022-09-11T09:56:43;5.70;;;4.00;;
18407;SDS011;9330;52.210;21.174;2022-09-11T09:59:17;6.38;;;4.38;;
18407;SDS011;9330;52.210;21.174;2022-09-11T10:01:48;6.32;;;4.38;;
18407;SDS011;9330;52.210;21.174;2022-09-11T10:04:17;5.20;;;3.90;;
18407;SDS011;9330;52.210;21.174;2022-09-11T10:06:47;8.30;;;4.43;;
18407;SDS011;9330;52.210;21.174;2022-09-11T10:09:20;5.70;;;4.55;;
18407;SDS011;9330;52.210;21.174;2022-09-11T10:11:52;5.18;;;4.50;;
18407;SDS011;9330;52.210;21.174;2022-09-11T10:14:21;6.28;;;4.45;;
18407;SDS011;9330;52.210;21.174;2022-09-11T10:16:49;5.35;;;4.43;;
18407;SDS011;9330;52.210;21.174;2022-09-11T10:22:21;6.38;;;4.55;;
18407;SDS011;9330;52.210;21.174;2022-09-11T10:24:51;6.07;;;4.43;;
18407;SDS011;9330;52.210;21.174;2022-09-11T10:27:27;4.68;;;3.65;;
18407;SDS011;9330;52.210;21.174;2022-09-11T10:29:59;7.38;;;4.55;;
18407;SDS011;9330;52.210;21.174;2022-09-11T10:32:29;5.65;;;4.35;;
18407;SDS011;9330;52.210;21.174;2022-09-11T10:34:57;5.60;;;3.95;;
18407;SDS011;9330;52.210;21.174;2022-09-11T10:37:25;5.47;;;4.07;;
18407;SDS011;9330;52.210;21.174;2022-09-11T10:39:59;5.10;;;4.32;;
18407;SDS011;9330;52.210;21.174;2022-09-11T10:42:31;4.50;;;4.10;;
18407;SDS011;9330;52.210;21.174;2022-09-11T10:45:04;6.15;;;4.20;;
18407;SDS011;9330;52.210;21.174;2022-09-11T10:47:34;5.75;;;4.78;;
18407;SDS011;9330;52.210;21.174;2022-09-11T10:53:01;25.63;;;18.10;;
18407;SDS011;9330;52.210;21.174;2022-09-11T10:55:40;7.65;;;4.88;;
18407;SDS011;9330;52.210;21.174;2022-09-11T10:58:13;6.30;;;4.80;;
18407;SDS011;9330;52.210;21.174;2022-09-11T11:00:44;5.53;;;4.70;;
18407;SDS011;9330;52.210;21.174;2022-09-11T11:03:12;6.47;;;5.00;;
18407;SDS011;9330;52.210;21.174;2022-09-11T11:05:50;6.47;;;4.65;;
18407;SDS011;9330;52.210;21.174;2022-09-11T11:08:36;6.00;;;5.30;;
18407;SDS011;9330;52.210;21.174;2022-09-11T11:11:41;8.57;;;5.10;;
18407;SDS011;9330;52.210;21.174;2022-09-11T11:14:22;7.78;;;5.07;;
18407;SDS011;9330;52.210;21.174;2022-09-11T11:17:10;6.85;;;4.97;;
18407;SDS011;9330;52.210;21.174;2022-09-11T11:19:52;7.28;;;4.85;;
18407;SDS011;9330;52.210;21.174;2022-09-11T11:22:37;6.13;;;5.07;;
18407;SDS011;9330;52.210;21.174;2022-09-11T11:25:18;8.48;;;5.50;;
18407;SDS011;9330;52.210;21.174;2022-09-11T11:27:59;8.73;;;5.32;;
18407;SDS011;9330;52.210;21.174;2022-09-11T11:30:46;7.43;;;4.75;;
18407;SDS011;9330;52.210;21.174;2022-09-11T11:33:24;9.25;;;5.45;;
18407;SDS011;9330;52.210;21.174;2022-09-11T11:36:02;7.57;;;5.28;;
18407;SDS011;9330;52.210;21.174;2022-09-11T11:38:35;8.23;;;5.30;;
18407;SDS011;9330;52.210;21.174;2022-09-11T11:41:08;7.85;;;4.90;;
18407;SDS011;9330;52.210;21.174;2022-09-11T11:43:39;8.65;;;5.68;;
18407;SDS011;9330;52.210;21.174;2022-09-11T11:46:11;8.00;;;5.68;;
18407;SDS011;9330;52.210;21.174;2022-09-11T11:48:45;7.35;;;5.43;;
18407;SDS011;9330;52.210;21.174;2022-09-11T11:51:16;9.27;;;6.13;;
18407;SDS011;9330;52.210;21.174;2022-09-11T11:53:47;8.50;;;6.28;;
18407;SDS011;9330;52.210;21.174;2022-09-11T11:56:25;8.70;;;6.03;;
18407;SDS011;9330;52.210;21.174;2022-09-11T11:59:01;8.15;;;5.88;;
18407;SDS011;9330;52.210;21.174;2022-09-11T12:01:39;7.65;;;6.38;;
18407;SDS011;9330;52.210;21.174;2022-09-11T12:04:12;7.65;;;6.13;;
18407;SDS011;9330;52.210;21.174;2022-09-11T12:06:49;7.45;;;6.25;;
18407;SDS011;9330;52.210;21.174;2022-09-11T12:09:16;7.32;;;5.80;;
18407;SDS011;9330;52.210;21.174;2022-09-11T12:11:44;8.57;;;6.35;;
18407;SDS011;9330;52.210;21.174;2022-09-11T12:17:16;9.00;;;6.32;;
18407;SDS011;9330;52.210;21.174;2022-09-11T12:22:50;9.45;;;6.05;;
18407;SDS011;9330;52.210;21.174;2022-09-11T12:28:22;8.23;;;5.60;;
18407;SDS011;9330;52.210;21.174;2022-09-11T12:31:03;7.93;;;5.88;;
18407;SDS011;9330;52.210;21.174;2022-09-11T12:33:55;9.38;;;6.30;;
18407;SDS011;9330;52.210;21.174;2022-09-11T12:36:27;7.78;;;5.75;;
18407;SDS011;9330;52.210;21.174;2022-09-11T12:39:05;7.70;;;5.57;;
18407;SDS011;9330;52.210;21.174;2022-09-11T12:41:44;8.07;;;5.75;;
18407;SDS011;9330;52.210;21.174;2022-09-11T12:44:27;8.48;;;6.38;;
18407;SDS011;9330;52.210;21.174;2022-09-11T12:47:06;8.13;;;5.78;;
18407;SDS011;9330;52.210;21.174;2022-09-11T12:49:49;7.95;;;6.00;;
18407;SDS011;9330;52.210;21.174;2022-09-11T12:52:25;8.32;;;6.10;;
18407;SDS011;9330;52.210;21.174;2022-09-11T12:54:57;6.43;;;5.32;;
18407;SDS011;9330;52.210;21.174;2022-09-11T12:57:31;9.00;;;5.60;;
18407;SDS011;9330;52.210;21.174;2022-09-11T13:00:02;8.05;;;5.43;;
18407;SDS011;9330;52.210;21.174;2022-09-11T13:02:32;10.30;;;5.45;;
18407;SDS011;9330;52.210;21.174;2022-09-11T13:05:03;11.15;;;7.63;;
18407;SDS011;9330;52.210;21.174;2022-09-11T13:07:41;7.65;;;5.50;;
18407;SDS011;9330;52.210;21.174;2022-09-11T13:10:19;7.35;;;5.18;;
18407;SDS011;9330;52.210;21.174;2022-09-11T13:12:54;9.25;;;5.03;;
18407;SDS011;9330;52.210;21.174;2022-09-11T13:15:31;7.95;;;4.72;;
18407;SDS011;9330;52.210;21.174;2022-09-11T13:18:16;8.27;;;5.38;;
18407;SDS011;9330;52.210;21.174;2022-09-11T13:21:14;6.00;;;4.22;;
18407;SDS011;9330;52.210;21.174;2022-09-11T13:23:42;6.65;;;4.30;;
18407;SDS011;9330;52.210;21.174;2022-09-11T13:26:12;5.57;;;4.25;;
18407;SDS011;9330;52.210;21.174;2022-09-11T13:28:51;5.70;;;4.53;;
18407;SDS011;9330;52.210;21.174;2022-09-11T13:31:25;6.32;;;4.28;;
18407;SDS011;9330;52.210;21.174;2022-09-11T13:33:57;5.20;;;3.95;;
18407;SDS011;9330;52.210;21.174;2022-09-11T13:36:29;5.75;;;4.10;;
18407;SDS011;9330;52.210;21.174;2022-09-11T13:38:59;4.95;;;3.70;;
18407;SDS011;9330;52.210;21.174;2022-09-11T13:41:28;9.05;;;3.97;;
18407;SDS011;9330;52.210;21.174;2022-09-11T13:43:58;5.32;;;3.60;;
18407;SDS011;9330;52.210;21.174;2022-09-11T13:46:27;7.88;;;4.45;;
18407;SDS011;9330;52.210;21.174;2022-09-11T13:48:56;6.15;;;3.88;;
18407;SDS011;9330;52.210;21.174;2022-09-11T13:51:26;4.35;;;3.10;;
18407;SDS011;9330;52.210;21.174;2022-09-11T13:53:57;4.03;;;2.72;;
18407;SDS011;9330;52.210;21.174;2022-09-11T13:56:45;6.05;;;2.85;;
18407;SDS011;9330;52.210;21.174;2022-09-11T13:59:36;3.97;;;2.08;;
18407;SDS011;9330;52.210;21.174;2022-09-11T14:02:14;3.33;;;2.30;;
18407;SDS011;9330;52.210;21.174;2022-09-11T14:04:45;2.33;;;1.70;;
18407;SDS011;9330;52.210;21.174;2022-09-11T14:07:19;2.83;;;1.73;;
18407;SDS011;9330;52.210;21.174;2022-09-11T14:09:48;3.15;;;1.83;;
18407;SDS011;9330;52.210;21.174;2022-09-11T14:12:23;2.40;;;1.60;;
18407;SDS011;9330;52.210;21.174;2022-09-11T14:14:52;3.35;;;1.50;;
18407;SDS011;9330;52.210;21.174;2022-09-11T14:17:22;2.80;;;1.58;;
18407;SDS011;9330;52.210;21.174;2022-09-11T14:19:50;7.63;;;1.63;;
18407;SDS011;9330;52.210;21.174;2022-09-11T14:22:22;2.85;;;1.77;;
18407;SDS011;9330;52.210;21.174;2022-09-11T14:24:53;4.80;;;1.92;;
18407;SDS011;9330;52.210;21.174;2022-09-11T14:27:32;3.90;;;1.90;;
18407;SDS011;9330;52.210;21.174;2022-09-11T14:33:17;2.13;;;1.80;;
18407;SDS011;9330;52.210;21.174;2022-09-11T14:35:49;3.30;;;1.95;;
18407;SDS011;9330;52.210;21.174;2022-09-11T14:38:24;2.65;;;1.70;;
18407;SDS011;9330;52.210;21.174;2022-09-11T14:40:55;4.22;;;1.95;;
18407;SDS011;9330;52.210;21.174;2022-09-11T14:43:25;2.72;;;1.70;;
18407;SDS011;9330;52.210;21.174;2022-09-11T14:45:57;2.50;;;1.67;;
18407;SDS011;9330;52.210;21.174;2022-09-11T14:48:25;3.42;;;1.52;;
18407;SDS011;9330;52.210;21.174;2022-09-11T14:50:52;5.00;;;1.70;;
18407;SDS011;9330;52.210;21.174;2022-09-11T14:53:25;5.72;;;2.30;;
18407;SDS011;9330;52.210;21.174;2022-09-11T14:55:54;4.50;;;2.08;;
18407;SDS011;9330;52.210;21.174;2022-09-11T14:58:22;3.95;;;1.92;;
18407;SDS011;9330;52.210;21.174;2022-09-11T15:00:50;3.30;;;2.15;;
18407;SDS011;9330;52.210;21.174;2022-09-11T15:03:17;3.70;;;2.13;;
18407;SDS011;9330;52.210;21.174;2022-09-11T15:05:44;5.70;;;2.13;;
18407;SDS011;9330;52.210;21.174;2022-09-11T15:08:13;2.67;;;1.80;;
18407;SDS011;9330;52.210;21.174;2022-09-11T15:10:41;2.50;;;1.80;;
18407;SDS011;9330;52.210;21.174;2022-09-11T15:13:10;2.20;;;2.00;;
18407;SDS011;9330;52.210;21.174;2022-09-11T15:15:37;2.40;;;2.08;;
18407;SDS011;9330;52.210;21.174;2022-09-11T15:18:04;2.33;;;1.95;;
18407;SDS011;9330;52.210;21.174;2022-09-11T15:20:32;2.35;;;1.95;;
18407;SDS011;9330;52.210;21.174;2022-09-11T15:22:59;2.80;;;2.20;;
18407;SDS011;9330;52.210;21.174;2022-09-11T15:25:26;2.70;;;2.00;;
18407;SDS011;9330;52.210;21.174;2022-09-11T15:27:54;4.55;;;2.00;;
18407;SDS011;9330;52.210;21.174;2022-09-11T15:30:21;2.67;;;1.88;;
18407;SDS011;9330;52.210;21.174;2022-09-11T15:32:49;3.42;;;1.80;;